Time;durP1;ratioP1;P1;durP2;ratioP2;P2;SDS_P1;SDS_P2;PMS_P1;PMS_P2;Temp;Humidity;BMP_temperature;BMP_pressure;BME280_temperature;BME280_humidity;BME280_pressure;Samples;Min_cycle;Max_cycle;Signal;HPM_P1;HPM_P2
2022/01/14 00:01:26;;;;;;;46.77;20.10;;;;;;;-0.54;64.66;101191.06;5037085;28;20033;-77
2022/01/14 00:03:51;;;;;;;49.77;20.60;;;;;;;-0.47;64.05;101182.13;5038883;28;20096;-78
2022/01/14 00:06:17;;;;;;;57.13;22.57;;;;;;;-0.42;63.50;101181.03;5034509;28;20029;-76
2022/01/14 00:08:42;;;;;;;43.77;19.57;;;;;;;-0.22;63.12;101187.25;5039539;28;20029;-76
2022/01/14 00:11:15;;;;;;;50.10;20.63;;;;;;;-0.12;63.02;101201.59;5038782;28;20105;-78
2022/01/14 00:13:55;;;;;;;48.87;19.50;;;;;;;-0.32;62.96;101182.38;5035819;28;20097;-76
2022/01/14 00:16:21;;;;;;;48.57;20.47;;;;;;;-0.46;64.18;101192.47;5035449;28;20214;-76
2022/01/14 00:18:46;;;;;;;45.40;19.10;;;;;;;-0.19;62.81;101208.81;5035260;28;20030;-75
2022/01/14 00:21:12;;;;;;;45.33;18.97;;;;;;;-0.10;62.36;101218.88;5039646;28;20029;-77
2022/01/14 00:23:40;;;;;;;47.97;20.53;;;;;;;0.02;62.11;101217.56;5041173;28;20254;-78
2022/01/14 00:34:16;;;;;;;51.23;20.37;;;;;;;-0.26;62.25;101206.50;5040163;28;20021;-79
2022/01/14 00:36:42;;;;;;;45.03;19.27;;;;;;;-0.21;62.07;101191.53;5033641;28;20056;-77
2022/01/14 00:39:09;;;;;;;49.47;20.30;;;;;;;-0.24;61.70;101184.69;5031165;28;20259;-76
2022/01/14 00:41:35;;;;;;;45.20;19.20;;;;;;;-0.15;61.96;101194.75;5038307;28;20107;-77
2022/01/14 00:44:04;;;;;;;46.03;20.43;;;;;;;-0.44;62.68;101180.25;5038125;28;20029;-78
2022/01/14 00:46:29;;;;;;;43.30;18.47;;;;;;;-0.44;63.30;101189.81;5035720;28;20506;-75
2022/01/14 00:48:56;;;;;;;68.03;24.60;;;;;;;-0.64;63.23;101193.16;5039445;28;20052;-76
2022/01/14 00:51:22;;;;;;;79.43;27.70;;;;;;;-0.90;63.44;101160.28;5035882;28;20105;-77
2022/01/14 00:53:47;;;;;;;66.00;23.77;;;;;;;-0.78;64.21;101190.19;5037451;28;20092;-77
2022/01/14 01:01:35;;;;;;;54.57;21.13;;;;;;;-0.75;63.92;101190.94;5039638;28;20060;-75
2022/01/14 01:04:00;;;;;;;47.10;19.80;;;;;;;-0.77;64.18;101190.13;5039918;28;20037;-76
2022/01/14 01:06:26;;;;;;;46.23;19.97;;;;;;;-0.70;64.03;101164.75;5040118;28;20029;-76
2022/01/14 01:08:54;;;;;;;50.80;19.43;;;;;;;-0.68;64.04;101189.81;5038797;28;20056;-76
2022/01/14 01:11:25;;;;;;;51.47;20.07;;;;;;;-0.73;64.00;101175.28;5040358;28;20029;-77
2022/01/14 01:14:01;;;;;;;47.90;19.23;;;;;;;-0.82;64.36;101160.84;5038413;28;20048;-78
2022/01/14 01:16:26;;;;;;;50.50;22.17;;;;;;;-0.82;64.79;101166.03;5034708;28;20033;-77
2022/01/14 01:18:52;;;;;;;58.80;21.20;;;;;;;-0.75;64.62;101171.88;5037453;28;20061;-76
2022/01/14 01:21:17;;;;;;;50.43;19.50;;;;;;;-0.84;64.20;101172.22;5035755;28;20025;-76
2022/01/14 01:23:43;;;;;;;46.20;19.73;;;;;;;-0.81;64.69;101166.91;5040390;28;20105;-77
2022/01/14 01:26:14;;;;;;;49.93;19.37;;;;;;;-0.83;64.26;101158.31;5037046;28;20026;-75
2022/01/14 01:28:56;;;;;;;56.10;21.17;;;;;;;-0.71;64.49;101150.06;5035397;28;20068;-79
2022/01/14 01:34:22;;;;;;;46.37;19.70;;;;;;;-0.67;64.27;101141.22;5030811;28;20045;-78
2022/01/14 01:36:50;;;;;;;49.20;18.40;;;;;;;-0.69;64.46;101132.63;5039258;28;20373;-76
2022/01/14 01:39:20;;;;;;;40.13;17.93;;;;;;;-0.76;64.19;101125.97;5038523;28;20033;-77
2022/01/14 01:41:49;;;;;;;49.20;19.13;;;;;;;-0.79;64.42;101121.72;5037834;28;20189;-76
2022/01/14 01:44:17;;;;;;;45.30;18.97;;;;;;;-0.65;63.47;101129.88;5038051;28;20040;-76
2022/01/14 01:46:46;;;;;;;45.50;19.67;;;;;;;-0.75;63.29;101128.50;5039579;28;20236;-76
2022/01/14 01:49:12;;;;;;;49.63;17.90;;;;;;;-0.70;63.38;101130.94;5038063;28;20095;-77
2022/01/14 01:51:38;;;;;;;42.77;19.10;;;;;;;-0.60;63.09;101126.25;5039288;28;20030;-77
2022/01/14 01:54:05;;;;;;;44.13;18.97;;;;;;;-0.68;62.83;101118.72;5036629;28;20029;-77
2022/01/14 01:56:30;;;;;;;47.20;18.77;;;;;;;-0.75;63.39;101112.91;5035482;28;20096;-75
2022/01/14 01:58:56;;;;;;;47.00;17.93;;;;;;;-0.86;63.94;101114.22;5035064;28;20369;-75
2022/01/14 02:01:24;;;;;;;44.27;18.40;;;;;;;-0.73;63.82;101103.28;5035869;28;20211;-75
2022/01/14 02:03:50;;;;;;;50.23;18.90;;;;;;;-0.70;63.41;101092.78;5037779;28;20041;-76
2022/01/14 02:06:17;;;;;;;44.87;19.10;;;;;;;-0.55;63.67;101091.34;5036521;28;20234;-76
2022/01/14 02:08:43;;;;;;;47.27;18.37;;;;;;;-0.61;63.72;101078.56;5030157;28;20067;-76
2022/01/14 02:11:08;;;;;;;43.73;18.60;;;;;;;-0.72;63.71;101067.72;5036057;28;20029;-78
2022/01/14 02:13:34;;;;;;;45.00;18.03;;;;;;;-0.72;63.95;101073.78;5034812;28;20091;-77
2022/01/14 02:18:35;;;;;;;50.70;19.13;;;;;;;-0.90;64.46;101068.41;5039014;28;20033;-76
2022/01/14 02:24:34;;;;;;;48.63;19.47;;;;;;;-0.90;64.99;101073.63;5038583;28;20107;-76
2022/01/14 02:26:53;;;;;;;51.43;19.93;;;;;;;-0.93;65.19;101079.78;5034099;28;20045;-75
2022/01/14 02:29:20;;;;;;;46.07;18.57;;;;;;;-0.96;65.00;101064.28;5034468;28;20013;-75
2022/01/14 02:31:46;;;;;;;47.73;19.20;;;;;;;-0.83;64.84;101060.31;5039096;28;20104;-76
2022/01/14 02:34:13;;;;;;;52.00;20.37;;;;;;;-0.88;65.13;101062.25;5038973;28;20052;-76
2022/01/14 02:36:41;;;;;;;51.10;22.10;;;;;;;-0.80;65.34;101039.41;5038674;28;20282;-76
2022/01/14 02:39:07;;;;;;;60.03;22.90;;;;;;;-0.79;65.47;101058.47;5038979;28;20031;-78
2022/01/14 02:41:37;;;;;;;62.80;22.67;;;;;;;-0.70;65.50;101058.97;5038631;28;20059;-78
2022/01/14 02:44:05;;;;;;;57.53;22.03;;;;;;;-0.73;65.72;101051.28;5036465;28;20104;-78
2022/01/14 02:46:36;;;;;;;54.73;21.07;;;;;;;-0.83;65.72;101038.69;5027843;28;20137;-75
2022/01/14 02:49:03;;;;;;;48.70;17.73;;;;;;;-1.20;66.88;101021.81;5033438;28;20029;-76
2022/01/14 02:51:28;;;;;;;52.90;20.47;;;;;;;-0.97;67.03;101032.25;5038587;28;20037;-76
2022/01/14 02:53:59;;;;;;;51.63;19.83;;;;;;;-1.07;67.75;101020.47;5037704;28;20412;-76
2022/01/14 02:56:32;;;;;;;49.57;21.13;;;;;;;-1.10;67.21;101020.59;5031427;28;20048;-77
2022/01/14 02:59:00;;;;;;;51.50;19.08;;;;;;;-1.09;67.70;101022.28;5036925;28;20029;-78
2022/01/14 03:01:27;;;;;;;59.87;22.57;;;;;;;-1.04;67.55;101017.78;5033269;28;20041;-77
2022/01/14 03:03:57;;;;;;;55.63;21.83;;;;;;;-0.94;67.38;100996.63;5035339;28;20045;-75
2022/01/14 03:06:23;;;;;;;61.13;23.27;;;;;;;-1.04;67.02;100985.72;5034024;28;20342;-76
2022/01/14 03:08:49;;;;;;;51.97;18.50;;;;;;;-1.00;66.40;101001.16;5035223;28;20041;-75
2022/01/14 03:11:34;;;;;;;53.27;18.77;;;;;;;-1.12;67.05;100988.59;5035669;28;20208;-76
2022/01/14 03:14:00;;;;;;;60.50;24.10;;;;;;;-0.86;67.29;101008.44;5034723;28;20042;-78
2022/01/14 03:16:25;;;;;;;53.10;21.67;;;;;;;-0.78;66.19;100992.53;5030965;28;20033;-78
2022/01/14 03:18:54;;;;;;;59.03;22.70;;;;;;;-0.57;65.33;100996.06;5037076;28;20042;-75
2022/01/14 03:21:28;;;;;;;67.53;23.57;;;;;;;-0.64;65.82;100987.63;5036298;28;20025;-77
2022/01/14 03:24:04;;;;;;;59.80;22.53;;;;;;;-0.42;65.22;100977.22;5035987;28;20073;-78
2022/01/14 03:26:30;;;;;;;62.33;23.80;;;;;;;-0.44;65.20;100985.09;5038345;28;20040;-78
2022/01/14 03:28:56;;;;;;;72.27;25.47;;;;;;;-0.57;65.41;100967.44;5037850;28;20041;-77
2022/01/14 03:31:21;;;;;;;55.77;21.10;;;;;;;-0.53;64.89;100974.19;5037911;28;20076;-75
2022/01/14 03:33:46;;;;;;;61.63;23.37;;;;;;;-0.62;64.69;100964.16;5034445;28;20236;-76
2022/01/14 03:36:12;;;;;;;56.73;22.00;;;;;;;-0.72;64.73;100942.88;5030902;28;20218;-76
2022/01/14 03:38:38;;;;;;;54.47;20.67;;;;;;;-0.55;64.30;100958.66;5035978;28;20056;-76
2022/01/14 03:41:04;;;;;;;49.57;19.93;;;;;;;-0.85;65.20;100958.13;5034832;28;20084;-77
2022/01/14 03:43:31;;;;;;;52.67;20.13;;;;;;;-0.69;65.16;100942.75;5036283;28;20072;-77
2022/01/14 03:45:57;;;;;;;53.07;20.13;;;;;;;-1.00;65.72;100938.78;5037156;28;20042;-77
2022/01/14 03:48:22;;;;;;;50.87;19.80;;;;;;;-0.78;65.56;100919.72;5031567;28;20052;-76
2022/01/14 03:50:48;;;;;;;44.37;17.77;;;;;;;-0.74;64.91;100932.53;5037464;28;20036;-77
2022/01/14 03:53:13;;;;;;;39.77;15.97;;;;;;;-0.85;65.07;100937.31;5035518;28;20145;-76
2022/01/14 03:55:40;;;;;;;45.60;16.53;;;;;;;-0.82;64.99;100923.34;5035987;28;20088;-76
2022/01/14 03:58:07;;;;;;;47.20;17.50;;;;;;;-0.91;64.91;100934.97;5033799;28;20025;-76
2022/01/14 04:00:33;;;;;;;47.80;16.80;;;;;;;-0.63;63.91;100933.88;5035955;28;20233;-77
2022/01/14 04:02:58;;;;;;;49.13;18.20;;;;;;;-0.77;64.20;100926.63;5035253;28;20361;-78
2022/01/14 04:05:24;;;;;;;48.90;17.10;;;;;;;-0.72;63.75;100922.91;5035481;28;20091;-76
2022/01/14 04:07:49;;;;;;;43.77;18.37;;;;;;;-0.67;63.29;100920.13;5037481;28;20040;-76
2022/01/14 04:10:15;;;;;;;42.00;17.87;;;;;;;-0.73;63.80;100928.19;5037392;28;20048;-76
2022/01/14 04:15:47;;;;;;;41.07;16.70;;;;;;;-0.70;63.93;100925.47;5035610;28;20092;-76
2022/01/14 04:18:16;;;;;;;51.50;18.60;;;;;;;-0.66;64.57;100920.06;5034410;28;20046;-75
2022/01/14 04:20:45;;;;;;;52.43;19.30;;;;;;;-0.70;64.48;100920.25;5036470;28;20218;-76
2022/01/14 04:23:11;;;;;;;50.13;18.73;;;;;;;-0.73;64.47;100909.97;5035680;28;20049;-77
2022/01/14 04:25:38;;;;;;;49.27;17.17;;;;;;;-0.71;64.15;100921.16;5035015;28;20319;-76
2022/01/14 04:28:05;;;;;;;53.20;18.97;;;;;;;-0.73;63.89;100889.19;5034953;28;20064;-77
2022/01/14 04:30:31;;;;;;;50.13;17.60;;;;;;;-0.52;63.12;100908.25;5036386;28;20021;-77
2022/01/14 04:32:58;;;;;;;58.67;19.10;;;;;;;-0.57;63.27;100915.41;5031448;28;20030;-75
2022/01/14 04:35:24;;;;;;;44.67;17.37;;;;;;;-0.44;63.04;100914.84;5035365;28;20315;-76
2022/01/14 04:37:50;;;;;;;46.07;18.00;;;;;;;-0.48;63.48;100900.25;5034330;28;20332;-75
2022/01/14 04:40:17;;;;;;;40.77;16.10;;;;;;;-0.35;63.13;100903.19;5039252;28;20197;-77
2022/01/14 04:42:43;;;;;;;41.40;16.77;;;;;;;-0.25;63.04;100903.66;5038893;28;20028;-78
2022/01/14 04:45:12;;;;;;;47.57;17.77;;;;;;;-0.29;62.29;100902.94;5037299;28;20208;-77
2022/01/14 04:47:46;;;;;;;41.57;17.87;;;;;;;-0.53;63.26;100902.22;5038194;28;20302;-75
2022/01/14 04:50:18;;;;;;;41.70;17.50;;;;;;;-0.51;63.10;100899.53;5036456;28;20101;-75
2022/01/14 04:52:46;;;;;;;46.67;17.33;;;;;;;-0.55;63.13;100897.97;5035686;28;20044;-77
2022/01/14 04:55:14;;;;;;;47.90;18.03;;;;;;;-0.65;63.44;100907.91;5035664;28;20034;-75
2022/01/14 04:57:40;;;;;;;48.13;17.77;;;;;;;-0.65;63.54;100887.09;5040189;28;20311;-76
2022/01/14 05:00:12;;;;;;;46.50;16.73;;;;;;;-0.56;62.70;100885.88;5037279;28;20087;-78
2022/01/14 05:02:39;;;;;;;40.30;17.80;;;;;;;-0.53;62.97;100889.19;5037935;28;20036;-77
2022/01/14 05:05:06;;;;;;;49.23;16.87;;;;;;;-0.44;62.81;100890.56;5036852;28;20044;-77
2022/01/14 05:07:32;;;;;;;46.20;17.67;;;;;;;-0.40;62.08;100879.97;5036037;28;20092;-76
2022/01/14 05:12:44;;;;;;;45.27;16.97;;;;;;;-0.47;62.35;100870.72;4996575;28;20041;-76
2022/01/14 05:15:11;;;;;;;43.60;17.67;;;;;;;-0.29;62.20;100884.72;5038643;28;20025;-77
2022/01/14 05:17:36;;;;;;;48.53;17.77;;;;;;;-0.31;62.52;100870.91;5035274;28;20037;-78
2022/01/14 05:20:04;;;;;;;45.53;19.03;;;;;;;-0.04;62.39;100892.31;5037853;28;20029;-78
2022/01/14 05:22:29;;;;;;;45.77;19.03;;;;;;;-0.15;62.68;100887.56;5035604;28;20307;-77
2022/01/14 05:24:55;;;;;;;41.23;18.70;;;;;;;0.02;62.39;100893.84;5035124;28;20047;-76
2022/01/14 05:27:21;;;;;;;50.43;19.50;;;;;;;-0.14;62.45;100894.47;5042021;28;20092;-76
2022/01/14 05:29:47;;;;;;;44.97;18.13;;;;;;;-0.14;62.75;100888.41;5044570;28;20033;-76
2022/01/14 05:32:14;;;;;;;43.97;17.57;;;;;;;-0.20;62.47;100876.50;5044359;28;20071;-75
2022/01/14 05:34:42;;;;;;;56.67;21.93;;;;;;;-0.17;62.63;100881.59;5043333;28;20075;-75
2022/01/14 05:37:08;;;;;;;43.43;17.10;;;;;;;-0.24;63.43;100885.38;5043084;28;20064;-77
2022/01/14 05:39:35;;;;;;;44.73;17.87;;;;;;;-0.23;63.69;100873.19;5044699;28;20258;-77
2022/01/14 05:42:01;;;;;;;45.50;17.67;;;;;;;-0.24;63.57;100867.16;5042979;28;20026;-76
2022/01/14 05:44:28;;;;;;;46.77;17.47;;;;;;;-0.35;63.87;100870.22;5044401;28;20052;-76
2022/01/14 05:47:19;;;;;;;42.90;16.57;;;;;;;-0.34;63.63;100865.84;5245120;22;20104;-70
2022/01/14 05:49:45;;;;;;;44.47;17.33;;;;;;;-0.36;64.04;100880.69;4975988;28;20050;-69
2022/01/14 05:52:10;;;;;;;46.90;19.87;;;;;;;-0.18;63.37;100876.44;4965836;28;20090;-70
2022/01/14 05:54:36;;;;;;;42.63;17.23;;;;;;;-0.06;62.48;100876.75;4966124;28;20110;-69
2022/01/14 05:57:01;;;;;;;47.63;18.83;;;;;;;0.05;62.25;100873.72;4965644;28;20031;-70
2022/01/14 05:59:26;;;;;;;39.67;17.73;;;;;;;0.05;61.87;100871.09;4965889;28;20098;-69
2022/01/14 06:01:53;;;;;;;43.03;17.23;;;;;;;-0.13;61.99;100864.91;4965606;29;20043;-69
2022/01/14 06:04:18;;;;;;;41.10;16.70;;;;;;;-0.05;61.87;100862.81;4964601;28;20107;-70
2022/01/14 06:06:44;;;;;;;46.43;17.33;;;;;;;-0.02;62.17;100867.06;4965546;28;20031;-69
2022/01/14 06:09:09;;;;;;;38.83;14.87;;;;;;;-0.17;62.30;100854.72;4965818;28;20105;-69
2022/01/14 06:11:34;;;;;;;36.83;15.50;;;;;;;0.04;61.82;100861.59;4965589;29;20055;-70
2022/01/14 06:14:00;;;;;;;37.73;15.67;;;;;;;-0.06;61.55;100861.13;4964432;29;20027;-70
2022/01/14 06:16:25;;;;;;;42.43;16.80;;;;;;;-0.03;62.11;100858.41;4966112;28;20031;-70
2022/01/14 06:18:51;;;;;;;37.80;15.37;;;;;;;-0.07;62.02;100848.19;4980173;28;20106;-69
2022/01/14 06:21:16;;;;;;;40.43;16.43;;;;;;;-0.04;62.38;100854.09;4965568;28;20035;-69
2022/01/14 06:23:42;;;;;;;32.53;13.63;;;;;;;-0.02;61.91;100835.81;4965194;28;20081;-69
2022/01/14 06:26:08;;;;;;;37.57;14.67;;;;;;;0.05;61.99;100823.38;4964190;29;20027;-70
2022/01/14 06:28:33;;;;;;;38.37;14.90;;;;;;;0.08;62.29;100813.69;4965292;28;20339;-70
2022/01/14 06:30:59;;;;;;;36.53;14.57;;;;;;;0.07;62.58;100813.75;4965304;28;20283;-69
2022/01/14 06:33:24;;;;;;;36.27;14.87;;;;;;;0.19;62.17;100821.00;4980033;28;20216;-69
2022/01/14 06:35:50;;;;;;;44.53;15.83;;;;;;;0.19;62.00;100808.81;4980229;28;20031;-71
2022/01/14 06:38:19;;;;;;;33.50;13.60;;;;;;;0.21;62.04;100793.97;4974919;28;20038;-70
2022/01/14 06:40:47;;;;;;;36.03;14.67;;;;;;;0.34;62.17;100788.19;4981895;28;20035;-70
2022/01/14 06:43:14;;;;;;;31.33;13.73;;;;;;;0.39;62.05;100799.25;4983086;28;20033;-69
2022/01/14 06:45:40;;;;;;;37.40;14.50;;;;;;;0.52;61.41;100800.34;4976738;28;20022;-69
2022/01/14 06:48:06;;;;;;;40.83;16.20;;;;;;;0.62;61.45;100794.63;4988743;28;20074;-70
2022/01/14 06:50:31;;;;;;;35.70;14.20;;;;;;;0.70;60.98;100789.03;5015923;28;20029;-69
2022/01/14 06:52:56;;;;;;;28.83;12.47;;;;;;;0.79;60.29;100796.44;5003436;28;20127;-70
2022/01/14 06:55:22;;;;;;;33.07;13.23;;;;;;;0.89;60.26;100796.81;5021872;28;20079;-71
2022/01/14 06:57:47;;;;;;;37.70;12.80;;;;;;;0.99;59.45;100786.78;5014787;28;20144;-71
2022/01/14 07:00:15;;;;;;;32.60;13.23;;;;;;;1.07;58.90;100795.09;5015615;28;20030;-69
2022/01/14 07:02:41;;;;;;;30.67;14.23;;;;;;;1.04;58.73;100803.91;5002588;28;20097;-69
2022/01/14 07:05:08;;;;;;;34.20;13.67;;;;;;;1.24;58.35;100818.59;5001829;28;20541;-69
2022/01/14 07:07:34;;;;;;;33.30;14.03;;;;;;;1.31;58.57;100819.97;5015709;28;20054;-69
2022/01/14 07:10:01;;;;;;;35.97;12.40;;;;;;;1.52;57.13;100818.03;5015310;28;20320;-70
2022/01/14 07:12:31;;;;;;;28.60;11.93;;;;;;;1.45;56.86;100814.88;5002004;28;20037;-70
2022/01/14 07:14:57;;;;;;;36.57;16.20;;;;;;;1.60;57.30;100805.44;5021301;28;20026;-70
2022/01/14 07:17:24;;;;;;;28.20;13.97;;;;;;;1.82;56.92;100802.53;5015877;28;20326;-69
2022/01/14 07:19:53;;;;;;;27.43;12.20;;;;;;;1.98;56.77;100792.13;5014943;28;20037;-69
2022/01/14 07:22:19;;;;;;;29.50;12.73;;;;;;;2.01;56.49;100784.97;5016207;28;20030;-71
2022/01/14 07:24:45;;;;;;;32.73;13.77;;;;;;;2.27;55.71;100772.28;5015422;28;20204;-70
2022/01/14 07:27:11;;;;;;;28.23;13.20;;;;;;;2.28;55.34;100776.59;5015661;28;20045;-71
2022/01/14 07:29:36;;;;;;;32.93;14.03;;;;;;;2.47;55.05;100764.19;5013059;28;20319;-69
2022/01/14 07:32:03;;;;;;;34.27;15.00;;;;;;;2.51;54.26;100752.63;5021054;28;20255;-70
2022/01/14 07:34:28;;;;;;;35.87;14.23;;;;;;;2.78;54.25;100760.69;5020339;28;20053;-69
2022/01/14 07:36:54;;;;;;;32.87;13.83;;;;;;;2.66;53.69;100748.31;5014551;28;20056;-70
2022/01/14 07:39:19;;;;;;;40.53;16.63;;;;;;;2.75;54.36;100755.63;5014530;28;20030;-70
2022/01/14 07:41:49;;;;;;;36.97;15.13;;;;;;;2.93;54.29;100749.34;5015983;28;20258;-70
2022/01/14 07:44:15;;;;;;;30.10;13.83;;;;;;;2.98;53.67;100743.84;5015722;28;20345;-70
2022/01/14 07:46:40;;;;;;;31.73;13.17;;;;;;;2.93;54.62;100744.09;5016261;28;20053;-69
2022/01/14 07:49:06;;;;;;;32.17;13.03;;;;;;;2.99;53.98;100733.28;5017102;28;20045;-71
2022/01/14 07:51:31;;;;;;;31.10;13.10;;;;;;;3.15;54.41;100720.16;5016139;28;20122;-71
2022/01/14 07:53:57;;;;;;;30.40;13.03;;;;;;;3.16;53.66;100716.63;5016887;28;20038;-71
2022/01/14 07:56:24;;;;;;;29.00;12.17;;;;;;;3.13;52.95;100707.19;5016572;28;20033;-69
2022/01/14 07:58:50;;;;;;;30.80;12.30;;;;;;;2.99;53.17;100698.44;5015249;28;20069;-71
2022/01/14 08:01:15;;;;;;;33.03;13.00;;;;;;;3.01;53.06;100689.56;5017431;28;20022;-71
2022/01/14 08:03:41;;;;;;;31.83;14.77;;;;;;;3.39;53.52;100700.38;5016632;28;20042;-69
2022/01/14 08:06:09;;;;;;;36.10;13.73;;;;;;;3.50;53.21;100702.34;4999229;28;20036;-72
2022/01/14 08:08:36;;;;;;;30.10;11.97;;;;;;;3.39;53.40;100715.25;5015448;28;20034;-70
2022/01/14 08:11:01;;;;;;;36.43;14.00;;;;;;;3.57;53.50;100706.25;5016587;28;20112;-75
2022/01/14 08:13:26;;;;;;;35.90;13.40;;;;;;;3.60;53.18;100703.47;5019966;28;20037;-73
2022/01/14 08:15:52;;;;;;;35.63;12.13;;;;;;;3.43;53.33;100711.50;5018880;28;20025;-68
2022/01/14 08:18:17;;;;;;;25.03;11.70;;;;;;;3.69;54.46;100713.38;5003226;28;20266;-66
2022/01/14 08:20:43;;;;;;;34.20;11.83;;;;;;;4.08;53.20;100696.09;5017542;28;20092;-66
2022/01/14 08:23:08;;;;;;;28.60;11.13;;;;;;;3.85;53.46;100666.94;5020104;28;20029;-71
2022/01/14 08:25:34;;;;;;;29.33;11.70;;;;;;;3.91;53.64;100683.22;5019665;28;20041;-69
2022/01/14 08:27:59;;;;;;;28.53;11.43;;;;;;;4.09;53.66;100669.78;5018451;28;20042;-69
2022/01/14 08:30:25;;;;;;;28.87;11.17;;;;;;;3.95;53.25;100653.25;5019515;28;20068;-73
2022/01/14 08:32:50;;;;;;;30.23;11.00;;;;;;;4.27;53.20;100677.44;5018258;28;20338;-74
2022/01/14 08:35:16;;;;;;;33.93;12.83;;;;;;;4.22;53.05;100675.09;5019299;28;20084;-68
2022/01/14 08:37:42;;;;;;;25.47;10.23;;;;;;;4.13;53.24;100667.81;5019872;28;20049;-70
2022/01/14 08:40:09;;;;;;;26.63;10.47;;;;;;;4.24;53.50;100665.34;5017781;28;20044;-69
2022/01/14 08:42:35;;;;;;;25.47;10.97;;;;;;;4.26;54.29;100673.97;5018080;28;20037;-70
2022/01/14 08:45:01;;;;;;;28.63;13.13;;;;;;;4.59;54.24;100659.59;4999999;28;20064;-70
2022/01/14 08:47:26;;;;;;;25.73;11.57;;;;;;;4.38;54.02;100653.97;5018519;28;20262;-71
2022/01/14 08:49:52;;;;;;;24.97;10.37;;;;;;;4.45;54.12;100644.75;5020738;28;20048;-71
2022/01/14 08:52:17;;;;;;;24.40;12.17;;;;;;;4.53;55.32;100649.50;5023445;28;20041;-71
2022/01/14 08:54:43;;;;;;;29.73;13.57;;;;;;;4.70;55.51;100639.56;5022019;28;20026;-71
2022/01/14 08:57:09;;;;;;;24.33;11.20;;;;;;;4.71;54.96;100616.78;5022621;28;20030;-71
2022/01/14 08:59:36;;;;;;;26.77;12.90;;;;;;;4.87;55.68;100627.94;5022945;28;20338;-71
2022/01/14 09:02:02;;;;;;;32.67;12.17;;;;;;;4.84;55.23;100617.66;5022813;28;20045;-70
2022/01/14 09:04:27;;;;;;;25.87;11.70;;;;;;;4.85;55.40;100623.72;5023049;28;20025;-70
2022/01/14 09:06:53;;;;;;;31.83;13.20;;;;;;;4.94;55.98;100618.69;5005798;28;20235;-70
2022/01/14 09:09:18;;;;;;;29.57;13.13;;;;;;;5.03;56.92;100602.31;5024214;28;20041;-70
2022/01/14 09:11:44;;;;;;;26.53;12.67;;;;;;;5.05;56.96;100589.94;5023402;28;20093;-71
2022/01/14 09:14:09;;;;;;;24.77;11.97;;;;;;;5.07;56.68;100563.56;5024212;28;20046;-71
2022/01/14 09:16:35;;;;;;;26.63;11.90;;;;;;;5.23;57.60;100571.25;5023902;28;20101;-72
2022/01/14 09:19:01;;;;;;;31.60;11.73;;;;;;;5.25;58.30;100550.97;5005977;28;20030;-71
2022/01/14 09:21:27;;;;;;;26.63;11.77;;;;;;;5.14;59.10;100551.69;5023809;28;20334;-72
2022/01/14 09:24:03;;;;;;;27.13;12.23;;;;;;;5.17;60.01;100545.38;5023881;28;20060;-71
2022/01/14 09:26:29;;;;;;;26.77;10.07;;;;;;;5.23;58.74;100545.84;5023655;28;20196;-72
2022/01/14 09:28:54;;;;;;;30.80;12.43;;;;;;;5.33;59.67;100548.63;5006035;28;20034;-71
2022/01/14 09:31:20;;;;;;;25.87;11.70;;;;;;;5.31;61.04;100533.00;5022293;28;20137;-70
2022/01/14 09:33:45;;;;;;;26.97;12.77;;;;;;;5.35;61.07;100526.56;5023427;28;20132;-70
2022/01/14 09:36:11;;;;;;;26.03;12.30;;;;;;;5.31;61.22;100514.63;5006422;28;20022;-71
2022/01/14 09:38:36;;;;;;;28.37;11.20;;;;;;;5.33;61.94;100527.63;5023591;28;20102;-71
2022/01/14 09:41:02;;;;;;;28.67;11.50;;;;;;;5.52;61.90;100520.09;5023524;28;20037;-71
2022/01/14 09:43:30;;;;;;;20.33;10.23;;;;;;;5.67;61.87;100512.91;5023674;28;20034;-71
2022/01/14 09:45:56;;;;;;;21.73;9.87;;;;;;;5.59;62.26;100515.25;5023733;28;20034;-70
2022/01/14 09:48:22;;;;;;;23.93;10.60;;;;;;;5.41;63.77;100502.50;5021654;28;20069;-70
2022/01/14 09:50:47;;;;;;;24.40;10.90;;;;;;;5.50;64.22;100495.75;5022206;28;20037;-70
2022/01/14 09:53:16;;;;;;;26.77;12.73;;;;;;;5.69;64.10;100490.81;5023769;28;20048;-70
2022/01/14 09:55:43;;;;;;;24.03;10.53;;;;;;;5.88;63.13;100498.19;5023083;28;20050;-72
2022/01/14 09:58:09;;;;;;;30.33;10.90;;;;;;;5.81;63.71;100483.81;5023333;28;20042;-71
2022/01/14 10:00:36;;;;;;;20.05;8.68;;;;;;;5.76;63.02;100471.03;5023358;28;20042;-72
2022/01/14 10:03:25;;;;;;;23.90;9.73;;;;;;;5.76;63.99;100468.38;5022955;28;20230;-71
2022/01/14 10:05:56;;;;;;;22.50;10.32;;;;;;;5.63;63.67;100427.38;5023262;28;20029;-72
2022/01/14 10:08:26;;;;;;;23.20;9.43;;;;;;;5.86;63.00;100459.81;5022989;28;20029;-72
2022/01/14 10:10:59;;;;;;;38.40;14.20;;;;;;;6.01;63.81;100456.91;5022742;28;20029;-70
2022/01/14 10:13:33;;;;;;;31.57;12.37;;;;;;;6.26;63.90;100442.78;5022906;28;20339;-70
2022/01/14 10:16:06;;;;;;;29.45;12.10;;;;;;;6.09;63.03;100444.03;5023116;28;20034;-72
2022/01/14 10:18:34;;;;;;;27.73;11.20;;;;;;;6.15;62.43;100447.16;5022313;28;20037;-71
2022/01/14 10:21:02;;;;;;;23.00;10.48;;;;;;;6.07;62.87;100437.22;5023087;28;20030;-71
2022/01/14 10:23:45;;;;;;;25.50;11.53;;;;;;;6.18;62.96;100439.03;5022916;28;20045;-71
2022/01/14 10:26:13;;;;;;;30.02;12.32;;;;;;;6.13;62.52;100422.75;5022478;28;20040;-71
2022/01/14 10:28:39;;;;;;;26.25;11.80;;;;;;;6.33;63.63;100415.03;5022978;28;20053;-71
2022/01/14 10:31:08;;;;;;;25.05;11.00;;;;;;;6.35;62.78;100415.75;5022836;28;20041;-71
2022/01/14 10:33:34;;;;;;;26.50;11.13;;;;;;;6.42;62.02;100399.50;5021706;28;20041;-70
2022/01/14 10:36:00;;;;;;;26.95;10.48;;;;;;;6.26;62.52;100390.19;5023075;28;20033;-71
2022/01/14 10:38:36;;;;;;;22.20;9.60;;;;;;;6.31;63.51;100390.66;5022574;28;20371;-71
2022/01/14 10:41:07;;;;;;;21.35;9.05;;;;;;;6.37;63.74;100384.91;5022286;28;20033;-71
2022/01/14 10:43:35;;;;;;;22.50;8.73;;;;;;;6.47;62.61;100371.88;5004912;28;20042;-71
2022/01/14 10:46:07;;;;;;;22.60;8.98;;;;;;;6.61;64.11;100373.44;5021543;28;20022;-71
2022/01/14 10:48:36;;;;;;;19.70;9.18;;;;;;;6.71;64.16;100355.94;5004366;28;20049;-72
2022/01/14 10:51:07;;;;;;;17.67;8.70;;;;;;;6.68;62.48;100351.75;5022842;28;20037;-71
2022/01/14 10:53:35;;;;;;;22.83;9.77;;;;;;;6.71;63.68;100350.69;5022438;28;20058;-71
2022/01/14 10:56:12;;;;;;;16.13;8.40;;;;;;;6.71;62.82;100355.94;5022187;28;20100;-71
2022/01/14 10:58:50;;;;;;;15.70;8.10;;;;;;;6.64;63.07;100350.34;5021899;28;20112;-70
2022/01/14 11:01:21;;;;;;;14.20;6.68;;;;;;;6.70;63.21;100338.47;5022294;28;20076;-70
2022/01/14 11:03:52;;;;;;;16.27;8.18;;;;;;;6.63;63.08;100324.13;5022393;28;20050;-70
2022/01/14 11:06:23;;;;;;;18.33;7.88;;;;;;;6.60;63.55;100325.22;5004706;28;20017;-71
2022/01/14 11:08:56;;;;;;;20.63;9.10;;;;;;;6.53;64.03;100316.16;5022001;28;20092;-71
2022/01/14 11:11:23;;;;;;;20.98;7.68;;;;;;;6.64;64.25;100323.19;5022042;28;20227;-71
2022/01/14 11:13:48;;;;;;;18.05;7.30;;;;;;;6.69;63.77;100306.06;5022377;28;20161;-71
2022/01/14 11:16:14;;;;;;;17.05;8.55;;;;;;;6.92;64.21;100317.38;5004405;28;20078;-71
2022/01/14 11:18:40;;;;;;;18.08;7.78;;;;;;;6.95;63.04;100303.94;5004209;28;20085;-70
2022/01/14 11:23:50;;;;;;;18.42;8.55;;;;;;;6.94;63.90;100283.00;5021723;28;20125;-71
2022/01/14 11:26:19;;;;;;;17.88;8.48;;;;;;;6.99;63.79;100281.69;5021900;28;20287;-71
2022/01/14 11:28:46;;;;;;;18.90;8.35;;;;;;;6.98;63.22;100284.44;5021982;28;20369;-71
2022/01/14 11:31:36;;;;;;;28.23;10.13;;;;;;;7.01;63.48;100273.66;5021949;28;20093;-72
2022/01/14 11:34:04;;;;;;;19.60;9.63;;;;;;;6.92;63.25;100267.34;5003984;28;20227;-71
2022/01/14 11:36:49;;;;;;;17.60;8.20;;;;;;;6.92;63.32;100266.50;5021604;28;20030;-71
2022/01/14 11:39:22;;;;;;;18.33;7.93;;;;;;;6.90;62.43;100264.00;5004097;28;20096;-71
2022/01/14 11:41:59;;;;;;;16.90;8.23;;;;;;;6.99;63.08;100265.03;5004387;28;20034;-70
2022/01/14 11:44:56;;;;;;;17.50;8.02;;;;;;;6.99;62.53;100262.41;5020520;28;20053;-70
2022/01/14 11:47:25;;;;;;;14.27;7.55;;;;;;;6.99;62.73;100259.78;5021460;28;20049;-72